Time;durP1;ratioP1;P1;durP2;ratioP2;P2;SDS_P1;SDS_P2;PMS_P1;PMS_P2;Temp;Humidity;BMP_temperature;BMP_pressure;BME280_temperature;BME280_humidity;BME280_pressure;Samples;Min_cycle;Max_cycle;Signal;HPM_P1;HPM_P2
2023/06/15 00:01:48;;;;;;;5.95;2.67;;;;;;;;;;5099089;28;20382;-65
2023/06/15 00:04:13;;;;;;;7.05;2.47;;;;;;;;;;5094888;28;20031;-66
2023/06/15 00:06:38;;;;;;;5.88;2.75;;;;;;;;;;5099289;28;20016;-65
2023/06/15 00:09:04;;;;;;;3.63;2.27;;;;;;;;;;5093662;28;20440;-65
2023/06/15 00:11:29;;;;;;;4.55;2.60;;;;;;;;;;5100390;28;20274;-65
2023/06/15 00:13:55;;;;;;;4.72;2.70;;;;;;;;;;5100176;28;20028;-65
2023/06/15 00:16:20;;;;;;;5.55;2.88;;;;;;;;;;5099844;28;20646;-65
2023/06/15 00:18:48;;;;;;;4.30;2.53;;;;;;;;;;5093312;28;20382;-65
2023/06/15 00:21:16;;;;;;;3.75;2.63;;;;;;;;;;5096573;28;20030;-65
2023/06/15 00:23:42;;;;;;;10.90;2.50;;;;;;;;;;5093124;28;20501;-66
2023/06/15 00:26:07;;;;;;;5.05;2.83;;;;;;;;;;5095592;28;20044;-65
2023/06/15 00:28:32;;;;;;;4.15;2.83;;;;;;;;;;5093416;28;20096;-66
2023/06/15 00:30:57;;;;;;;5.30;2.47;;;;;;;;;;5105585;28;20054;-66
2023/06/15 00:33:23;;;;;;;4.37;2.80;;;;;;;;;;5092159;28;20305;-66
2023/06/15 00:35:48;;;;;;;3.97;2.78;;;;;;;;;;5105848;28;20272;-66
2023/06/15 00:38:14;;;;;;;5.43;3.40;;;;;;;;;;5112229;28;20031;-66
2023/06/15 00:40:39;;;;;;;4.13;3.00;;;;;;;;;;5111225;28;20018;-66
2023/06/15 00:43:04;;;;;;;3.63;2.60;;;;;;;;;;5112237;28;20059;-66
2023/06/15 00:45:32;;;;;;;4.68;2.70;;;;;;;;;;5110978;28;20092;-65
2023/06/15 00:47:57;;;;;;;5.75;3.38;;;;;;;;;;5109309;28;20016;-65
2023/06/15 00:50:23;;;;;;;5.00;2.83;;;;;;;;;;5110421;28;20041;-65
2023/06/15 00:52:50;;;;;;;5.50;2.88;;;;;;;;;;5110345;28;20357;-65
2023/06/15 00:55:16;;;;;;;6.38;2.95;;;;;;;;;;5109653;28;20023;-65
2023/06/15 00:57:44;;;;;;;4.47;2.85;;;;;;;;;;5107970;28;20030;-66
2023/06/15 01:00:17;;;;;;;4.15;2.33;;;;;;;;;;5108684;28;20065;-65
2023/06/15 01:02:43;;;;;;;6.55;2.92;;;;;;;;;;5111079;28;20024;-65
2023/06/15 01:05:12;;;;;;;7.45;3.05;;;;;;;;;;5104571;28;20080;-65
2023/06/15 01:07:46;;;;;;;6.82;3.33;;;;;;;;;;5110167;28;20060;-65
2023/06/15 01:10:12;;;;;;;4.22;2.80;;;;;;;;;;5109596;28;20051;-65
2023/06/15 01:12:41;;;;;;;5.50;3.22;;;;;;;;;;5094435;28;20498;-65
2023/06/15 01:15:07;;;;;;;5.70;2.40;;;;;;;;;;5097772;28;20044;-65
2023/06/15 01:17:33;;;;;;;3.63;2.65;;;;;;;;;;5101405;28;20482;-65
2023/06/15 01:20:05;;;;;;;3.70;2.53;;;;;;;;;;5099155;28;20031;-65
2023/06/15 01:22:44;;;;;;;4.78;2.63;;;;;;;;;;5103155;28;20470;-65
2023/06/15 01:25:26;;;;;;;6.32;3.40;;;;;;;;;;5095530;28;20084;-65
2023/06/15 01:27:52;;;;;;;5.55;3.25;;;;;;;;;;5094838;28;20028;-65
2023/06/15 01:30:17;;;;;;;5.00;3.15;;;;;;;;;;5093442;28;20358;-65
2023/06/15 01:32:42;;;;;;;5.10;2.38;;;;;;;;;;5104006;28;20020;-65
2023/06/15 01:35:08;;;;;;;5.20;2.72;;;;;;;;;;5097140;28;20069;-65
2023/06/15 01:37:33;;;;;;;5.85;2.97;;;;;;;;;;5111235;28;20405;-65
2023/06/15 01:39:58;;;;;;;4.28;3.25;;;;;;;;;;5111328;28;20032;-65
2023/06/15 01:42:24;;;;;;;4.90;2.92;;;;;;;;;;5104579;28;20111;-65
2023/06/15 01:44:50;;;;;;;6.75;2.85;;;;;;;;;;5099992;28;20023;-65
2023/06/15 01:47:17;;;;;;;3.80;2.65;;;;;;;;;;5110891;28;20031;-65
2023/06/15 01:49:43;;;;;;;4.78;3.00;;;;;;;;;;5110773;28;20115;-67
2023/06/15 01:52:08;;;;;;;4.90;3.10;;;;;;;;;;5104657;28;20508;-65
2023/06/15 01:54:33;;;;;;;5.65;3.20;;;;;;;;;;5104520;28;20040;-65
2023/06/15 01:56:59;;;;;;;4.20;2.87;;;;;;;;;;5109246;28;20032;-65
2023/06/15 01:59:24;;;;;;;3.95;2.85;;;;;;;;;;5110647;28;20262;-65
2023/06/15 02:01:49;;;;;;;5.00;3.05;;;;;;;;;;5109969;28;20024;-65
2023/06/15 02:04:15;;;;;;;7.40;3.15;;;;;;;;;;5110463;28;20107;-65
2023/06/15 02:06:40;;;;;;;5.57;3.25;;;;;;;;;;5110002;28;20020;-65
2023/06/15 02:09:05;;;;;;;5.40;2.97;;;;;;;;;;5103827;28;20032;-66
2023/06/15 02:11:30;;;;;;;4.05;2.90;;;;;;;;;;5053911;28;20022;-66
2023/06/15 02:13:59;;;;;;;4.93;2.95;;;;;;;;;;5059057;28;20023;-66
2023/06/15 02:16:24;;;;;;;6.50;3.45;;;;;;;;;;5056921;28;20031;-65
2023/06/15 02:18:51;;;;;;;5.38;2.95;;;;;;;;;;5065247;28;20130;-65
2023/06/15 02:21:16;;;;;;;4.47;2.63;;;;;;;;;;5061424;28;20071;-66
2023/06/15 02:23:41;;;;;;;5.27;2.80;;;;;;;;;;5066375;28;20084;-65
2023/06/15 02:26:07;;;;;;;4.30;2.58;;;;;;;;;;5063836;28;20277;-65
2023/06/15 02:28:33;;;;;;;7.05;3.17;;;;;;;;;;5060418;28;20024;-65
2023/06/15 02:30:58;;;;;;;4.57;2.50;;;;;;;;;;5064449;28;20016;-65
2023/06/15 02:33:25;;;;;;;5.82;3.13;;;;;;;;;;5063854;28;20032;-65
2023/06/15 02:35:51;;;;;;;4.38;2.88;;;;;;;;;;5057156;28;20867;-65
2023/06/15 02:38:16;;;;;;;5.13;3.25;;;;;;;;;;5055499;28;20027;-66
2023/06/15 02:40:41;;;;;;;4.72;3.25;;;;;;;;;;5064395;28;20081;-66
2023/06/15 02:43:07;;;;;;;5.63;2.70;;;;;;;;;;5067027;28;20023;-65
2023/06/15 02:45:32;;;;;;;5.55;3.42;;;;;;;;;;5067293;28;20016;-66
2023/06/15 02:47:58;;;;;;;5.55;2.60;;;;;;;;;;5054535;28;20039;-66
2023/06/15 02:50:23;;;;;;;6.18;3.65;;;;;;;;;;5054291;28;20027;-66
2023/06/15 02:52:49;;;;;;;4.85;3.00;;;;;;;;;;5067414;28;20910;-65
2023/06/15 02:55:15;;;;;;;6.55;3.22;;;;;;;;;;5066064;28;20034;-65
2023/06/15 02:57:41;;;;;;;5.65;3.20;;;;;;;;;;5052882;28;20020;-65
2023/06/15 03:00:09;;;;;;;13.85;3.33;;;;;;;;;;5064429;28;20019;-65
2023/06/15 03:02:34;;;;;;;5.57;3.97;;;;;;;;;;5066457;28;20028;-65
2023/06/15 03:04:59;;;;;;;5.70;3.75;;;;;;;;;;5097350;28;20493;-65
2023/06/15 03:07:25;;;;;;;4.45;3.10;;;;;;;;;;5112660;28;20073;-65
2023/06/15 03:09:51;;;;;;;6.15;3.45;;;;;;;;;;5073323;28;20023;-65
2023/06/15 03:12:17;;;;;;;6.32;3.17;;;;;;;;;;5078665;28;20024;-65
2023/06/15 03:14:50;;;;;;;5.85;3.30;;;;;;;;;;5093579;28;20033;-66
2023/06/15 03:17:15;;;;;;;5.93;3.55;;;;;;;;;;5102047;28;20031;-65
2023/06/15 03:19:40;;;;;;;5.57;3.70;;;;;;;;;;5094466;28;20028;-65
2023/06/15 03:22:07;;;;;;;4.45;3.15;;;;;;;;;;5099813;28;20474;-64
2023/06/15 03:24:33;;;;;;;4.60;3.10;;;;;;;;;;5094016;28;20509;-64
2023/06/15 03:27:01;;;;;;;6.25;3.45;;;;;;;;;;5106524;28;20055;-65
2023/06/15 03:29:27;;;;;;;7.13;3.75;;;;;;;;;;5103240;28;20012;-66
2023/06/15 03:31:52;;;;;;;5.20;2.92;;;;;;;;;;5102402;28;20073;-66
2023/06/15 03:34:18;;;;;;;5.15;3.22;;;;;;;;;;5101633;28;20019;-65
2023/06/15 03:36:43;;;;;;;8.48;3.47;;;;;;;;;;5110671;28;20020;-65
2023/06/15 03:39:09;;;;;;;6.97;3.13;;;;;;;;;;5111059;28;20039;-65
2023/06/15 03:41:37;;;;;;;6.03;3.63;;;;;;;;;;5098592;28;20020;-65
2023/06/15 03:44:02;;;;;;;7.68;3.40;;;;;;;;;;5093883;28;20118;-65
2023/06/15 03:46:27;;;;;;;7.03;2.90;;;;;;;;;;5094586;28;20106;-65
2023/06/15 03:48:53;;;;;;;11.07;3.63;;;;;;;;;;5093510;28;20028;-65
2023/06/15 03:51:18;;;;;;;5.17;3.87;;;;;;;;;;5095423;28;20024;-65
2023/06/15 03:53:43;;;;;;;3.97;3.03;;;;;;;;;;5110671;28;20364;-65
2023/06/15 03:56:09;;;;;;;5.93;3.25;;;;;;;;;;5111889;28;20755;-65
2023/06/15 03:58:34;;;;;;;5.40;3.28;;;;;;;;;;5103515;28;20028;-65
2023/06/15 04:01:00;;;;;;;4.57;3.30;;;;;;;;;;5106262;28;20708;-65
2023/06/15 04:03:26;;;;;;;6.15;3.65;;;;;;;;;;5111502;28;20457;-65
2023/06/15 04:05:52;;;;;;;6.25;4.03;;;;;;;;;;5108233;28;20098;-65
2023/06/15 04:08:18;;;;;;;4.57;3.13;;;;;;;;;;5104470;28;20147;-65
2023/06/15 04:10:43;;;;;;;8.65;4.13;;;;;;;;;;5100357;28;21311;-65
2023/06/15 04:13:08;;;;;;;5.47;4.25;;;;;;;;;;5108973;28;20027;-65
2023/06/15 04:15:33;;;;;;;4.88;3.55;;;;;;;;;;5109119;28;20027;-65
2023/06/15 04:18:00;;;;;;;4.40;3.63;;;;;;;;;;5075177;28;20063;-65
2023/06/15 04:20:27;;;;;;;6.40;3.47;;;;;;;;;;5050681;28;20031;-65
2023/06/15 04:22:52;;;;;;;5.05;3.72;;;;;;;;;;5060456;28;20012;-65
2023/06/15 04:25:18;;;;;;;9.30;4.50;;;;;;;;;;5106086;28;20039;-65
2023/06/15 04:27:44;;;;;;;8.25;4.30;;;;;;;;;;5108968;28;20023;-65
2023/06/15 04:30:10;;;;;;;6.40;4.00;;;;;;;;;;5103564;28;20052;-65
2023/06/15 04:32:35;;;;;;;7.05;3.45;;;;;;;;;;5107061;28;20092;-65
2023/06/15 04:35:01;;;;;;;9.55;4.20;;;;;;;;;;5108089;28;20068;-65
2023/06/15 04:37:28;;;;;;;5.22;3.55;;;;;;;;;;5108502;28;20035;-65
2023/06/15 04:39:56;;;;;;;6.43;4.00;;;;;;;;;;5104611;28;20050;-65
2023/06/15 04:42:21;;;;;;;5.72;3.88;;;;;;;;;;5112074;28;20028;-65
2023/06/15 04:44:47;;;;;;;8.20;4.05;;;;;;;;;;5102583;28;20026;-65
2023/06/15 04:47:12;;;;;;;6.33;3.83;;;;;;;;;;5103452;28;20032;-64
2023/06/15 04:49:37;;;;;;;8.18;4.22;;;;;;;;;;5092702;28;20308;-65
2023/06/15 04:52:02;;;;;;;7.13;3.75;;;;;;;;;;5104441;28;20027;-64
2023/06/15 04:54:28;;;;;;;8.13;4.43;;;;;;;;;;5105902;28;20487;-64
2023/06/15 04:56:53;;;;;;;5.50;3.80;;;;;;;;;;5100230;28;20031;-65
2023/06/15 04:59:18;;;;;;;7.50;3.38;;;;;;;;;;5095228;28;20277;-65
2023/06/15 05:01:43;;;;;;;7.15;3.70;;;;;;;;;;5112250;28;20024;-65
2023/06/15 05:04:09;;;;;;;6.00;3.53;;;;;;;;;;5112265;28;20035;-65
2023/06/15 05:06:34;;;;;;;6.03;4.55;;;;;;;;;;5105749;28;20303;-65
2023/06/15 05:08:59;;;;;;;6.95;4.25;;;;;;;;;;5108859;28;20032;-65
2023/06/15 05:11:24;;;;;;;5.20;3.53;;;;;;;;;;5095821;28;20102;-65
2023/06/15 05:13:50;;;;;;;7.43;4.30;;;;;;;;;;5108520;28;20028;-64
2023/06/15 05:16:15;;;;;;;7.10;3.87;;;;;;;;;;5105863;28;20035;-64
2023/06/15 05:18:41;;;;;;;7.43;3.72;;;;;;;;;;5109648;28;20277;-65
2023/06/15 05:21:07;;;;;;;6.82;4.85;;;;;;;;;;5109161;28;20048;-65
2023/06/15 05:23:32;;;;;;;7.18;4.18;;;;;;;;;;5109743;28;20038;-64
2023/06/15 05:25:58;;;;;;;7.75;4.53;;;;;;;;;;5085573;28;20528;-64
2023/06/15 05:28:24;;;;;;;4.72;3.67;;;;;;;;;;5110148;28;20504;-65
2023/06/15 05:30:49;;;;;;;7.18;4.55;;;;;;;;;;5108369;28;20024;-65
2023/06/15 05:33:15;;;;;;;5.22;4.25;;;;;;;;;;5110479;28;20032;-64
2023/06/15 05:35:40;;;;;;;7.72;3.78;;;;;;;;;;5109259;28;20355;-65
2023/06/15 05:38:05;;;;;;;7.90;4.40;;;;;;;;;;5111234;28;20031;-64
2023/06/15 05:40:30;;;;;;;6.88;4.03;;;;;;;;;;5109637;28;20389;-64
2023/06/15 05:42:56;;;;;;;6.80;4.20;;;;;;;;;;5102518;28;20020;-64
2023/06/15 05:45:22;;;;;;;7.18;4.00;;;;;;;;;;5102458;28;20338;-64
2023/06/15 05:47:47;;;;;;;7.43;4.38;;;;;;;;;;5110705;28;20524;-65
2023/06/15 05:50:12;;;;;;;6.15;3.88;;;;;;;;;;5110246;28;20390;-65
2023/06/15 05:52:38;;;;;;;5.72;3.88;;;;;;;;;;5110487;28;20034;-65
2023/06/15 05:55:03;;;;;;;8.80;4.35;;;;;;;;;;5110457;28;20032;-64
2023/06/15 05:57:28;;;;;;;9.27;3.97;;;;;;;;;;5109284;28;20149;-65
2023/06/15 05:59:53;;;;;;;6.15;4.03;;;;;;;;;;5086970;28;20028;-64
2023/06/15 06:02:19;;;;;;;7.30;3.93;;;;;;;;;;5098460;28;20478;-64
2023/06/15 06:04:44;;;;;;;7.85;4.60;;;;;;;;;;5091153;28;20648;-65
2023/06/15 06:07:10;;;;;;;14.75;4.65;;;;;;;;;;5087208;28;20020;-65
2023/06/15 06:09:38;;;;;;;6.10;4.18;;;;;;;;;;5070742;28;20020;-65
2023/06/15 06:12:04;;;;;;;6.28;3.45;;;;;;;;;;5095305;28;20095;-65
2023/06/15 06:14:29;;;;;;;6.40;4.18;;;;;;;;;;5110551;28;20382;-65
2023/06/15 06:16:55;;;;;;;6.25;4.03;;;;;;;;;;5115213;28;20020;-65
2023/06/15 06:19:21;;;;;;;6.00;4.22;;;;;;;;;;5111843;28;20448;-64
2023/06/15 06:21:46;;;;;;;6.03;4.10;;;;;;;;;;5114092;28;20023;-65
2023/06/15 06:24:11;;;;;;;4.68;3.50;;;;;;;;;;5110720;28;20086;-65
2023/06/15 06:26:36;;;;;;;5.38;3.90;;;;;;;;;;5113124;28;20024;-65
2023/06/15 06:29:03;;;;;;;6.57;3.83;;;;;;;;;;5110935;28;20016;-65
2023/06/15 06:31:28;;;;;;;5.68;4.10;;;;;;;;;;5112898;28;20505;-65
2023/06/15 06:33:53;;;;;;;7.40;4.07;;;;;;;;;;5111923;28;20323;-65
2023/06/15 06:36:19;;;;;;;5.13;3.57;;;;;;;;;;5114027;28;20077;-65
2023/06/15 06:38:44;;;;;;;9.15;4.43;;;;;;;;;;5110697;28;20333;-65
2023/06/15 06:41:09;;;;;;;5.00;3.80;;;;;;;;;;5114409;28;20024;-64
2023/06/15 06:43:35;;;;;;;5.95;4.30;;;;;;;;;;5114565;28;20027;-64
2023/06/15 06:46:00;;;;;;;9.90;5.57;;;;;;;;;;5113645;28;20416;-64
2023/06/15 06:48:25;;;;;;;7.70;4.53;;;;;;;;;;5113962;28;20023;-65
2023/06/15 06:50:50;;;;;;;17.50;4.90;;;;;;;;;;5112523;28;20893;-65
2023/06/15 06:53:16;;;;;;;9.67;4.70;;;;;;;;;;5113938;28;20269;-65
2023/06/15 06:55:43;;;;;;;10.02;4.97;;;;;;;;;;5111790;28;20289;-65
2023/06/15 06:58:08;;;;;;;7.18;4.38;;;;;;;;;;5108613;28;20028;-65
2023/06/15 07:00:33;;;;;;;8.65;5.10;;;;;;;;;;5107079;28;20153;-65
2023/06/15 07:02:59;;;;;;;7.07;4.17;;;;;;;;;;5112802;28;20016;-64
2023/06/15 07:05:24;;;;;;;10.02;4.75;;;;;;;;;;5106013;28;20266;-64
2023/06/15 07:07:49;;;;;;;5.67;3.93;;;;;;;;;;5111092;28;20034;-64
2023/06/15 07:10:15;;;;;;;7.15;4.75;;;;;;;;;;5101835;28;20288;-64
2023/06/15 07:12:40;;;;;;;12.35;4.32;;;;;;;;;;5110980;28;20099;-64
2023/06/15 07:15:06;;;;;;;6.05;3.92;;;;;;;;;;5098484;28;20664;-64
2023/06/15 07:17:31;;;;;;;5.63;4.15;;;;;;;;;;5099909;28;20016;-65
2023/06/15 07:19:56;;;;;;;5.57;3.87;;;;;;;;;;5099343;28;20059;-64
2023/06/15 07:22:23;;;;;;;9.20;3.95;;;;;;;;;;5097853;28;20301;-64
2023/06/15 07:24:48;;;;;;;7.32;3.83;;;;;;;;;;5099136;28;20358;-64
2023/06/15 07:27:14;;;;;;;6.30;3.67;;;;;;;;;;5094682;28;20042;-64
2023/06/15 07:29:39;;;;;;;6.93;3.92;;;;;;;;;;5099437;28;20595;-64
2023/06/15 07:32:04;;;;;;;4.30;3.00;;;;;;;;;;5091421;28;20462;-64
2023/06/15 07:34:29;;;;;;;4.28;3.30;;;;;;;;;;5113082;28;20384;-65
2023/06/15 07:36:55;;;;;;;10.50;3.30;;;;;;;;;;5113803;28;20020;-64
2023/06/15 07:39:20;;;;;;;7.68;3.80;;;;;;;;;;5104989;28;20791;-64
2023/06/15 07:41:45;;;;;;;7.28;3.85;;;;;;;;;;5105309;28;20015;-64
2023/06/15 07:44:12;;;;;;;7.10;3.37;;;;;;;;;;5098138;28;20478;-64
2023/06/15 07:46:40;;;;;;;10.05;3.35;;;;;;;;;;5093546;28;20278;-63
2023/06/15 07:49:06;;;;;;;5.20;3.15;;;;;;;;;;5093841;28;20065;-64
2023/06/15 07:51:31;;;;;;;10.93;3.58;;;;;;;;;;5094151;28;20390;-64
2023/06/15 07:53:57;;;;;;;6.28;3.42;;;;;;;;;;5108845;28;20023;-64
2023/06/15 07:56:22;;;;;;;11.00;3.20;;;;;;;;;;5104729;28;20032;-64
2023/06/15 07:58:47;;;;;;;6.47;3.30;;;;;;;;;;5097308;28;20278;-64
2023/06/15 08:01:12;;;;;;;7.93;3.20;;;;;;;;;;5110068;28;20284;-65
2023/06/15 08:03:38;;;;;;;5.83;3.47;;;;;;;;;;5102088;28;20277;-64
2023/06/15 08:06:03;;;;;;;5.83;3.03;;;;;;;;;;5095670;28;20725;-65
2023/06/15 08:08:28;;;;;;;6.83;3.27;;;;;;;;;;5093557;28;20342;-65
2023/06/15 08:10:53;;;;;;;5.13;2.83;;;;;;;;;;5097356;28;20353;-65
2023/06/15 08:13:20;;;;;;;11.38;3.50;;;;;;;;;;5101836;28;20300;-64
2023/06/15 08:15:46;;;;;;;8.57;3.22;;;;;;;;;;5098610;28;20035;-64
2023/06/15 08:18:11;;;;;;;5.30;3.20;;;;;;;;;;5112478;28;20020;-65
2023/06/15 08:20:36;;;;;;;4.82;3.15;;;;;;;;;;5098594;28;20027;-64
2023/06/15 08:23:01;;;;;;;6.37;3.57;;;;;;;;;;5100428;28;20072;-64
2023/06/15 08:25:27;;;;;;;8.93;3.13;;;;;;;;;;5100432;28;20274;-65
2023/06/15 08:27:53;;;;;;;4.95;3.10;;;;;;;;;;5094468;28;20288;-64
2023/06/15 08:30:19;;;;;;;8.32;3.38;;;;;;;;;;5098652;28;20039;-64
2023/06/15 08:32:44;;;;;;;4.87;2.97;;;;;;;;;;5095904;28;20385;-64
2023/06/15 08:35:09;;;;;;;7.78;2.90;;;;;;;;;;5096090;28;20312;-64
2023/06/15 08:37:35;;;;;;;6.30;3.30;;;;;;;;;;5098236;28;20019;-64
2023/06/15 08:40:05;;;;;;;7.40;3.20;;;;;;;;;;5098398;28;20044;-64
2023/06/15 08:42:33;;;;;;;4.10;2.88;;;;;;;;;;5098691;28;20024;-64
2023/06/15 08:45:03;;;;;;;7.97;3.13;;;;;;;;;;5112284;28;20027;-65
2023/06/15 08:47:29;;;;;;;5.47;3.55;;;;;;;;;;5096929;28;20111;-65
2023/06/15 08:49:54;;;;;;;6.82;2.83;;;;;;;;;;5112641;28;20054;-63
2023/06/15 08:52:21;;;;;;;5.35;2.95;;;;;;;;;;5111948;28;20054;-64
2023/06/15 08:54:48;;;;;;;6.25;2.97;;;;;;;;;;5111442;28;20551;-64
2023/06/15 08:57:13;;;;;;;4.20;2.65;;;;;;;;;;5110339;28;20080;-64
2023/06/15 08:59:40;;;;;;;6.05;3.47;;;;;;;;;;5106910;28;20063;-64
2023/06/15 09:02:10;;;;;;;8.55;3.42;;;;;;;;;;5102687;28;20038;-64
2023/06/15 09:04:36;;;;;;;5.53;3.00;;;;;;;;;;5109137;28;20407;-64
2023/06/15 09:07:02;;;;;;;4.75;3.35;;;;;;;;;;5111760;28;20088;-64
2023/06/15 09:09:28;;;;;;;8.00;3.00;;;;;;;;;;5107919;28;20042;-63
2023/06/15 09:11:53;;;;;;;6.87;3.50;;;;;;;;;;5104497;28;20099;-64
2023/06/15 09:14:19;;;;;;;5.57;3.10;;;;;;;;;;5106553;28;20285;-65
2023/06/15 09:16:44;;;;;;;8.60;2.85;;;;;;;;;;5102797;28;20270;-63
2023/06/15 09:19:16;;;;;;;5.30;3.17;;;;;;;;;;5108977;28;20030;-64
2023/06/15 09:21:42;;;;;;;7.28;3.38;;;;;;;;;;5107864;28;20273;-64
2023/06/15 09:24:07;;;;;;;5.70;3.25;;;;;;;;;;5107407;28;20045;-64
2023/06/15 09:26:33;;;;;;;4.80;2.85;;;;;;;;;;5094732;28;20029;-63
2023/06/15 09:28:58;;;;;;;7.22;3.03;;;;;;;;;;5107402;28;20031;-65
2023/06/15 09:31:28;;;;;;;5.13;3.17;;;;;;;;;;5101211;28;20398;-66
2023/06/15 09:34:13;;;;;;;5.57;3.22;;;;;;;;;;5110583;28;20012;-64
2023/06/15 09:36:40;;;;;;;4.45;2.83;;;;;;;;;;5103416;28;20035;-65
2023/06/15 09:39:05;;;;;;;6.75;2.83;;;;;;;;;;5101640;28;20115;-65
2023/06/15 09:41:32;;;;;;;5.30;3.13;;;;;;;;;;5103891;28;20099;-65
2023/06/15 09:44:00;;;;;;;5.35;3.40;;;;;;;;;;5109699;28;20031;-65
2023/06/15 09:46:27;;;;;;;6.78;3.33;;;;;;;;;;5109595;28;20102;-65
2023/06/15 09:48:52;;;;;;;7.95;3.17;;;;;;;;;;5109770;28;20055;-66
2023/06/15 09:51:18;;;;;;;6.50;3.53;;;;;;;;;;5109010;28;20059;-66
2023/06/15 09:53:44;;;;;;;7.38;3.25;;;;;;;;;;5108631;28;20274;-65
2023/06/15 09:56:11;;;;;;;5.50;3.38;;;;;;;;;;5089690;28;20055;-67
2023/06/15 09:58:36;;;;;;;5.15;3.20;;;;;;;;;;5087077;28;20035;-64
2023/06/15 10:01:04;;;;;;;8.57;3.27;;;;;;;;;;5090441;28;20024;-65
2023/06/15 10:03:31;;;;;;;7.25;3.88;;;;;;;;;;5090977;28;20979;-65
2023/06/15 10:05:59;;;;;;;8.88;3.22;;;;;;;;;;5090234;28;20062;-65
2023/06/15 10:08:26;;;;;;;7.32;3.17;;;;;;;;;;5090816;28;20016;-65
2023/06/15 10:10:51;;;;;;;7.20;3.30;;;;;;;;;;5091226;28;20359;-66
2023/06/15 10:13:26;;;;;;;7.43;3.47;;;;;;;;;;5090291;28;20032;-66
2023/06/15 10:15:52;;;;;;;5.60;3.63;;;;;;;;;;5087380;28;20024;-66
2023/06/15 10:18:22;;;;;;;6.82;3.70;;;;;;;;;;5090110;28;20090;-65
2023/06/15 10:20:49;;;;;;;11.65;3.22;;;;;;;;;;5081187;28;20591;-66
2023/06/15 10:23:16;;;;;;;5.88;2.97;;;;;;;;;;5091413;28;20040;-64
2023/06/15 10:25:44;;;;;;;7.22;3.55;;;;;;;;;;5090516;28;20024;-65
2023/06/15 10:28:11;;;;;;;3.95;2.67;;;;;;;;;;5090454;28;20032;-65
2023/06/15 10:30:49;;;;;;;6.00;3.25;;;;;;;;;;5090273;28;20150;-65
2023/06/15 10:33:24;;;;;;;5.55;2.85;;;;;;;;;;5090141;28;20102;-65
2023/06/15 10:36:08;;;;;;;6.45;3.10;;;;;;;;;;5082371;28;20486;-63
2023/06/15 10:38:33;;;;;;;4.05;2.70;;;;;;;;;;5046940;28;20078;-66
2023/06/15 10:40:59;;;;;;;8.93;3.40;;;;;;;;;;5044172;28;20907;-65
2023/06/15 10:43:27;;;;;;;7.75;3.08;;;;;;;;;;5045192;28;20904;-65
2023/06/15 10:45:53;;;;;;;5.85;2.95;;;;;;;;;;5037891;28;20158;-65
2023/06/15 10:48:28;;;;;;;10.20;3.88;;;;;;;;;;5032388;28;21031;-66
2023/06/15 10:51:03;;;;;;;7.20;3.45;;;;;;;;;;5042906;28;20123;-65
2023/06/15 10:53:28;;;;;;;14.93;3.47;;;;;;;;;;5032906;28;20028;-67
2023/06/15 10:55:58;;;;;;;7.07;3.10;;;;;;;;;;5043742;28;20868;-66
2023/06/15 10:58:27;;;;;;;6.53;3.22;;;;;;;;;;5040074;28;20110;-65
2023/06/15 11:01:05;;;;;;;11.27;4.00;;;;;;;;;;5030325;28;20930;-64
2023/06/15 11:03:31;;;;;;;6.95;3.10;;;;;;;;;;5046553;28;20024;-65
2023/06/15 11:06:16;;;;;;;7.03;3.70;;;;;;;;;;5070049;28;20024;-66
2023/06/15 11:08:51;;;;;;;7.25;3.13;;;;;;;;;;5092915;28;20055;-65
2023/06/15 11:11:26;;;;;;;7.75;3.55;;;;;;;;;;5093054;28;20074;-65
2023/06/15 11:13:59;;;;;;;6.35;3.30;;;;;;;;;;5092633;28;20138;-65
2023/06/15 11:16:26;;;;;;;4.90;3.08;;;;;;;;;;5093232;28;20035;-65
2023/06/15 11:18:58;;;;;;;7.32;2.95;;;;;;;;;;5092990;28;20024;-65
2023/06/15 11:21:25;;;;;;;4.85;3.25;;;;;;;;;;5092429;28;20036;-66
2023/06/15 11:23:56;;;;;;;5.53;3.63;;;;;;;;;;5091625;28;20446;-65
2023/06/15 11:26:22;;;;;;;9.95;3.85;;;;;;;;;;5093640;28;20078;-66
2023/06/15 11:28:48;;;;;;;5.75;3.40;;;;;;;;;;5093088;28;20136;-65
2023/06/15 11:31:16;;;;;;;7.50;4.03;;;;;;;;;;5093227;28;20097;-65
2023/06/15 11:33:42;;;;;;;5.53;3.10;;;;;;;;;;5093398;28;20097;-68
2023/06/15 11:36:08;;;;;;;6.85;3.85;;;;;;;;;;5093031;28;20669;-65
2023/06/15 11:38:33;;;;;;;10.27;3.72;;;;;;;;;;5092505;28;20112;-65
2023/06/15 11:41:00;;;;;;;6.13;3.60;;;;;;;;;;5093224;28;20103;-64
2023/06/15 11:43:29;;;;;;;6.50;3.65;;;;;;;;;;5093029;28;20092;-65
2023/06/15 11:45:54;;;;;;;8.05;3.30;;;;;;;;;;5092689;28;20146;-66
2023/06/15 11:48:20;;;;;;;5.95;3.70;;;;;;;;;;5087465;28;20028;-66
2023/06/15 11:50:45;;;;;;;9.60;3.45;;;;;;;;;;5057633;28;20050;-66
2023/06/15 11:53:16;;;;;;;18.23;3.87;;;;;;;;;;5093292;28;20536;-66
2023/06/15 11:55:45;;;;;;;8.30;4.03;;;;;;;;;;5080651;28;20313;-65
2023/06/15 11:58:10;;;;;;;5.43;3.28;;;;;;;;;;5086268;28;20021;-65
2023/06/15 12:00:36;;;;;;;6.68;4.05;;;;;;;;;;5088690;28;20031;-65
2023/06/15 12:03:07;;;;;;;11.50;3.83;;;;;;;;;;5092648;28;20073;-65
2023/06/15 12:05:32;;;;;;;6.45;4.15;;;;;;;;;;5079589;28;20318;-65
2023/06/15 12:07:58;;;;;;;20.55;4.43;;;;;;;;;;5086128;28;20055;-66
2023/06/15 12:10:23;;;;;;;8.80;3.60;;;;;;;;;;5085790;28;20116;-66
2023/06/15 12:12:48;;;;;;;5.73;3.93;;;;;;;;;;5092697;28;20107;-65
2023/06/15 12:15:17;;;;;;;8.10;4.00;;;;;;;;;;5092696;28;20286;-64
2023/06/15 12:17:42;;;;;;;13.93;4.25;;;;;;;;;;5091950;28;20594;-65
2023/06/15 12:20:11;;;;;;;15.43;4.25;;;;;;;;;;5091537;28;20097;-65
2023/06/15 12:22:37;;;;;;;9.00;4.28;;;;;;;;;;5092039;28;20020;-65
2023/06/15 12:25:03;;;;;;;11.30;3.85;;;;;;;;;;5092697;28;20424;-65
2023/06/15 12:27:29;;;;;;;10.25;4.40;;;;;;;;;;5092134;28;20140;-65
2023/06/15 12:29:55;;;;;;;21.83;4.25;;;;;;;;;;5091122;28;20493;-65
2023/06/15 12:32:24;;;;;;;5.50;3.72;;;;;;;;;;5092213;28;20012;-64
2023/06/15 12:34:52;;;;;;;6.80;3.88;;;;;;;;;;5092202;28;20063;-65
2023/06/15 12:37:17;;;;;;;8.95;4.15;;;;;;;;;;5092548;28;20494;-65
2023/06/15 12:39:43;;;;;;;5.37;3.90;;;;;;;;;;5091979;28;20054;-65
2023/06/15 12:42:09;;;;;;;7.30;3.80;;;;;;;;;;5092144;28;20284;-65
2023/06/15 12:44:34;;;;;;;7.00;3.88;;;;;;;;;;5090248;28;20519;-67
2023/06/15 12:46:59;;;;;;;7.43;4.50;;;;;;;;;;5092151;28;20032;-66
2023/06/15 12:49:25;;;;;;;6.95;3.80;;;;;;;;;;5092009;28;20285;-66
2023/06/15 12:51:50;;;;;;;9.27;4.63;;;;;;;;;;5092111;28;20541;-65
2023/06/15 12:54:15;;;;;;;13.43;5.28;;;;;;;;;;5092219;28;20032;-66
2023/06/15 12:56:41;;;;;;;6.45;4.57;;;;;;;;;;5091784;28;20379;-64
2023/06/15 12:59:06;;;;;;;11.52;3.83;;;;;;;;;;5066653;28;20025;-66
2023/06/15 13:01:32;;;;;;;5.85;3.78;;;;;;;;;;5033916;28;20031;-65
2023/06/15 13:03:57;;;;;;;12.93;4.78;;;;;;;;;;5034968;28;20804;-65
2023/06/15 13:06:22;;;;;;;6.18;3.88;;;;;;;;;;5030411;28;20081;-66
2023/06/15 13:08:48;;;;;;;9.70;3.45;;;;;;;;;;5066153;28;20098;-65
2023/06/15 13:11:13;;;;;;;6.55;4.22;;;;;;;;;;5091730;28;20358;-66
2023/06/15 13:13:43;;;;;;;5.63;4.40;;;;;;;;;;5091349;28;20386;-63
2023/06/15 13:16:09;;;;;;;8.45;3.97;;;;;;;;;;5079206;28;20036;-63
2023/06/15 13:18:39;;;;;;;8.18;4.35;;;;;;;;;;5090041;28;20494;-64
2023/06/15 13:21:12;;;;;;;8.75;4.10;;;;;;;;;;5086728;28;20035;-64
2023/06/15 13:23:37;;;;;;;11.07;4.10;;;;;;;;;;5085411;28;20023;-64
2023/06/15 13:26:02;;;;;;;7.03;4.07;;;;;;;;;;5090155;28;20012;-64
2023/06/15 13:28:27;;;;;;;9.70;3.88;;;;;;;;;;5091646;28;20027;-64
2023/06/15 13:30:53;;;;;;;6.53;4.20;;;;;;;;;;5091151;28;20020;-64
2023/06/15 13:33:19;;;;;;;9.60;4.43;;;;;;;;;;5091771;28;20028;-64
2023/06/15 13:35:45;;;;;;;5.55;3.97;;;;;;;;;;5090748;28;20320;-64
2023/06/15 13:38:10;;;;;;;9.25;3.90;;;;;;;;;;5087053;28;20521;-63
2023/06/15 13:40:35;;;;;;;6.05;4.10;;;;;;;;;;5033727;28;20060;-64
2023/06/15 13:43:01;;;;;;;6.77;4.10;;;;;;;;;;5043265;28;20059;-64
2023/06/15 13:45:26;;;;;;;9.18;4.30;;;;;;;;;;5044114;28;21249;-63
2023/06/15 13:47:52;;;;;;;7.65;4.13;;;;;;;;;;5046627;28;20972;-64
2023/06/15 13:50:18;;;;;;;6.40;4.32;;;;;;;;;;5082123;28;20560;-63
2023/06/15 13:52:46;;;;;;;10.05;4.68;;;;;;;;;;5091189;28;20486;-65
2023/06/15 13:55:12;;;;;;;6.90;4.13;;;;;;;;;;5081141;28;20032;-64
2023/06/15 13:57:37;;;;;;;6.68;4.30;;;;;;;;;;5089350;28;20043;-63
2023/06/15 14:00:04;;;;;;;6.57;4.25;;;;;;;;;;5077912;28;20352;-63
2023/06/15 14:02:30;;;;;;;9.73;4.22;;;;;;;;;;5090901;28;20758;-65
2023/06/15 14:04:55;;;;;;;7.75;4.47;;;;;;;;;;5090106;28;20348;-63
2023/06/15 14:07:20;;;;;;;6.57;4.27;;;;;;;;;;5090272;28;20119;-63
2023/06/15 14:09:46;;;;;;;5.38;4.05;;;;;;;;;;5091281;28;20471;-64
2023/06/15 14:12:11;;;;;;;6.85;4.32;;;;;;;;;;5090497;28;20032;-65
2023/06/15 14:14:36;;;;;;;8.77;5.07;;;;;;;;;;5090506;28;20693;-64
2023/06/15 14:17:02;;;;;;;15.23;4.68;;;;;;;;;;5089912;28;20479;-65
2023/06/15 14:19:27;;;;;;;9.32;4.40;;;;;;;;;;5090809;28;20517;-65
2023/06/15 14:21:52;;;;;;;7.17;4.57;;;;;;;;;;5090253;28;20111;-64
2023/06/15 14:24:19;;;;;;;8.67;4.57;;;;;;;;;;5087516;28;20274;-65
2023/06/15 14:26:44;;;;;;;9.10;4.07;;;;;;;;;;5087794;28;20032;-65
2023/06/15 14:29:12;;;;;;;6.68;3.95;;;;;;;;;;5090450;28;20077;-65
2023/06/15 14:31:41;;;;;;;10.65;4.90;;;;;;;;;;5090829;28;20450;-65
2023/06/15 14:34:07;;;;;;;5.90;4.88;;;;;;;;;;5089084;28;20027;-65
2023/06/15 14:36:32;;;;;;;10.70;4.90;;;;;;;;;;5041379;28;20381;-65